Time;durP1;ratioP1;P1;durP2;ratioP2;P2;SDS_P1;SDS_P2;PMS_P1;PMS_P2;Temp;Humidity;BMP_temperature;BMP_pressure;BME280_temperature;BME280_humidity;BME280_pressure;Samples;Min_cycle;Max_cycle;Signal;HPM_P1;HPM_P2
2022/09/01 00:02:07;;;;;;;;;;;;;;;;;;5011600;28;19932;-68
2022/09/01 00:04:34;;;;;;;;;;;;;;;;;;5063053;28;20479;-67
2022/09/01 00:07:01;;;;;;;;;;;;;;;;;;5011185;28;19925;-68
2022/09/01 00:09:28;;;;;;;;;;;;;;;;;;5035515;28;20016;-68
2022/09/01 00:11:55;;;;;;;;;;;;;;;;;;5070865;28;19924;-68
2022/09/01 00:14:22;;;;;;;;;;;;;;;;;;5007351;28;19925;-68
2022/09/01 00:16:49;;;;;;;;;;;;;;;;;;4988196;28;20012;-68
2022/09/01 00:19:16;;;;;;;;;;;;;;;;;;5003207;28;20478;-68
2022/09/01 00:21:43;;;;;;;;;;;;;;;;;;5006749;28;19933;-69
2022/09/01 00:24:10;;;;;;;;;;;;;;;;;;5006368;28;20364;-68
2022/09/01 00:26:37;;;;;;;;;;;;;;;;;;5010636;28;20016;-67
2022/09/01 00:29:04;;;;;;;;;;;;;;;;;;4999276;28;19932;-68
2022/09/01 00:31:31;;;;;;;;;;;;;;;;;;5009735;28;19925;-68
2022/09/01 00:33:58;;;;;;;;;;;;;;;;;;5006750;28;20040;-68
2022/09/01 00:36:25;;;;;;;;;;;;;;;;;;5005730;28;20306;-68
2022/09/01 00:38:52;;;;;;;;;;;;;;;;;;4996942;28;20294;-68
2022/09/01 00:41:19;;;;;;;;;;;;;;;;;;4993460;28;20016;-68
2022/09/01 00:43:46;;;;;;;;;;;;;;;;;;5003710;28;20009;-68
2022/09/01 00:46:13;;;;;;;;;;;;;;;;;;5005997;28;20028;-68
2022/09/01 00:48:40;;;;;;;;;;;;;;;;;;5001308;28;19932;-68
2022/09/01 00:51:07;;;;;;;;;;;;;;;;;;5007032;28;20024;-68
2022/09/01 00:53:34;;;;;;;;;;;;;;;;;;5003028;28;19926;-68
2022/09/01 00:56:01;;;;;;;;;;;;;;;;;;5004201;28;19926;-68
2022/09/01 00:58:28;;;;;;;;;;;;;;;;;;4992643;28;20024;-68
2022/09/01 01:00:55;;;;;;;;;;;;;;;;;;5008573;28;19948;-68
2022/09/01 01:03:22;;;;;;;;;;;;;;;;;;5002987;28;19961;-68
2022/09/01 01:05:52;;;;;;;;;;;;;;;;;;5005836;28;19948;-67
2022/09/01 01:08:20;;;;;;;;;;;;;;;;;;5007025;28;20425;-68
2022/09/01 01:10:47;;;;;;;;;;;;;;;;;;5000071;28;19925;-68
2022/09/01 01:13:14;;;;;;;;;;;;;;;;;;5053538;28;19924;-68
2022/09/01 01:15:42;;;;;;;;;;;;;;;;;;5015296;28;19932;-68
2022/09/01 01:18:09;;;;;;;;;;;;;;;;;;5049355;28;19924;-68
2022/09/01 01:23:21;;;;;;;;;;;;;;;;;;5023977;28;19920;-68
2022/09/01 01:25:48;;;;;;;;;;;;;;;;;;5081769;28;20041;-68
2022/09/01 01:28:15;;;;;;;;;;;;;;;;;;5031841;28;19926;-68
2022/09/01 01:30:42;;;;;;;;;;;;;;;;;;5015018;28;19926;-68
2022/09/01 01:33:09;;;;;;;;;;;;;;;;;;5008669;28;20028;-67
2022/09/01 01:35:36;;;;;;;;;;;;;;;;;;5045011;28;20017;-67
2022/09/01 01:38:06;;;;;;;;;;;;;;;;;;5040297;28;19948;-68
2022/09/01 01:40:33;;;;;;;;;;;;;;;;;;5002240;28;19934;-67
2022/09/01 01:43:00;;;;;;;;;;;;;;;;;;5003744;28;20284;-67
2022/09/01 01:45:27;;;;;;;;;;;;;;;;;;5002031;28;19965;-67
2022/09/01 01:47:55;;;;;;;;;;;;;;;;;;5022557;28;19940;-67
2022/09/01 01:50:22;;;;;;;;;;;;;;;;;;4998113;28;19997;-67
2022/09/01 01:52:49;;;;;;;;;;;;;;;;;;5027211;28;19933;-67
2022/09/01 01:55:18;;;;;;;;;;;;;;;;;;5021876;28;19971;-67
2022/09/01 01:57:48;;;;;;;;;;;;;;;;;;5051089;28;19923;-67
2022/09/01 02:00:18;;;;;;;;;;;;;;;;;;5012805;28;19932;-67
2022/09/01 02:02:51;;;;;;;;;;;;;;;;;;5041064;28;19961;-67
2022/09/01 02:05:20;;;;;;;;;;;;;;;;;;5007977;28;20008;-69
2022/09/01 02:07:47;;;;;;;;;;;;;;;;;;5007766;28;20341;-68
2022/09/01 02:10:14;;;;;;;;;;;;;;;;;;5003533;28;20382;-67
2022/09/01 02:12:41;;;;;;;;;;;;;;;;;;5020465;28;19925;-68
2022/09/01 02:15:10;;;;;;;;;;;;;;;;;;5005224;28;20286;-67
2022/09/01 02:17:38;;;;;;;;;;;;;;;;;;5012631;28;19933;-67
2022/09/01 02:20:05;;;;;;;;;;;;;;;;;;5016671;28;19923;-68
2022/09/01 02:22:32;;;;;;;;;;;;;;;;;;5016896;28;20016;-67
2022/09/01 02:24:59;;;;;;;;;;;;;;;;;;5002521;28;20415;-68
2022/09/01 02:27:28;;;;;;;;;;;;;;;;;;5105682;28;19937;-68
2022/09/01 02:29:57;;;;;;;;;;;;;;;;;;5013536;28;19932;-67
2022/09/01 02:32:24;;;;;;;;;;;;;;;;;;5013225;28;19954;-67
2022/09/01 02:34:52;;;;;;;;;;;;;;;;;;5004279;28;19926;-68
2022/09/01 02:37:20;;;;;;;;;;;;;;;;;;5004449;28;19926;-67
2022/09/01 02:39:47;;;;;;;;;;;;;;;;;;4999455;28;19926;-68
2022/09/01 02:42:14;;;;;;;;;;;;;;;;;;5018053;28;19933;-69
2022/09/01 02:44:42;;;;;;;;;;;;;;;;;;5002883;28;20020;-68
2022/09/01 02:47:09;;;;;;;;;;;;;;;;;;4997822;28;20025;-68
2022/09/01 02:49:37;;;;;;;;;;;;;;;;;;4997965;28;19965;-67
2022/09/01 02:52:05;;;;;;;;;;;;;;;;;;5021276;28;19938;-68
2022/09/01 02:54:31;;;;;;;;;;;;;;;;;;5018284;28;20020;-68
2022/09/01 02:56:58;;;;;;;;;;;;;;;;;;5018435;28;19926;-68
2022/09/01 02:59:26;;;;;;;;;;;;;;;;;;5025376;28;19956;-69
2022/09/01 03:01:53;;;;;;;;;;;;;;;;;;5010612;28;19937;-68
2022/09/01 03:04:21;;;;;;;;;;;;;;;;;;4998328;28;19926;-67
2022/09/01 03:06:48;;;;;;;;;;;;;;;;;;5005927;28;20380;-67
2022/09/01 03:09:15;;;;;;;;;;;;;;;;;;5002638;28;19926;-67
2022/09/01 03:11:42;;;;;;;;;;;;;;;;;;5006964;28;19925;-67
2022/09/01 03:14:09;;;;;;;;;;;;;;;;;;5005481;28;20008;-68
2022/09/01 03:16:36;;;;;;;;;;;;;;;;;;4996950;28;20344;-68
2022/09/01 03:19:06;;;;;;;;;;;;;;;;;;5005989;28;19926;-67
2022/09/01 03:21:33;;;;;;;;;;;;;;;;;;5008427;28;20355;-68
2022/09/01 03:24:02;;;;;;;;;;;;;;;;;;4999717;28;20017;-68
2022/09/01 03:26:29;;;;;;;;;;;;;;;;;;5002457;28;19934;-68
2022/09/01 03:28:56;;;;;;;;;;;;;;;;;;5004762;28;19929;-68
2022/09/01 03:31:26;;;;;;;;;;;;;;;;;;5001352;28;19932;-68
2022/09/01 03:33:53;;;;;;;;;;;;;;;;;;5009661;28;20682;-68
2022/09/01 03:36:20;;;;;;;;;;;;;;;;;;5053351;28;19945;-68
2022/09/01 03:38:48;;;;;;;;;;;;;;;;;;5006142;28;20324;-68
2022/09/01 03:41:16;;;;;;;;;;;;;;;;;;5006621;28;19932;-67
2022/09/01 03:43:43;;;;;;;;;;;;;;;;;;5009008;28;20406;-67
2022/09/01 03:46:15;;;;;;;;;;;;;;;;;;4998759;28;20527;-69
2022/09/01 03:48:42;;;;;;;;;;;;;;;;;;5007176;28;20519;-68
2022/09/01 03:51:10;;;;;;;;;;;;;;;;;;5007849;28;19925;-67
2022/09/01 03:53:38;;;;;;;;;;;;;;;;;;5021678;28;19981;-67
2022/09/01 03:56:04;;;;;;;;;;;;;;;;;;5006783;28;20048;-67
2022/09/01 03:58:31;;;;;;;;;;;;;;;;;;5002759;28;19957;-67
2022/09/01 04:01:00;;;;;;;;;;;;;;;;;;5018278;28;19930;-68
2022/09/01 04:03:30;;;;;;;;;;;;;;;;;;5076285;28;20392;-67
2022/09/01 04:05:57;;;;;;;;;;;;;;;;;;5020918;28;20341;-68
2022/09/01 04:08:29;;;;;;;;;;;;;;;;;;5000679;28;19934;-67
2022/09/01 04:10:57;;;;;;;;;;;;;;;;;;5002303;28;19926;-67
2022/09/01 04:13:24;;;;;;;;;;;;;;;;;;4993096;28;19940;-68
2022/09/01 04:15:51;;;;;;;;;;;;;;;;;;4999938;28;19969;-69
2022/09/01 04:18:19;;;;;;;;;;;;;;;;;;5013651;28;19933;-68
2022/09/01 04:20:48;;;;;;;;;;;;;;;;;;5003260;28;19926;-67
2022/09/01 04:23:24;;;;;;;;;;;;;;;;;;5045056;28;19995;-68
2022/09/01 04:25:52;;;;;;;;;;;;;;;;;;4989668;28;19926;-68
2022/09/01 04:28:23;;;;;;;;;;;;;;;;;;5001950;28;20008;-67
2022/09/01 04:30:50;;;;;;;;;;;;;;;;;;4999862;28;19929;-68
2022/09/01 04:33:17;;;;;;;;;;;;;;;;;;5002093;28;19925;-67
2022/09/01 04:35:44;;;;;;;;;;;;;;;;;;5002220;28;19968;-68
2022/09/01 04:38:14;;;;;;;;;;;;;;;;;;4997192;28;19925;-68
2022/09/01 04:40:41;;;;;;;;;;;;;;;;;;5005196;28;19969;-68
2022/09/01 04:43:08;;;;;;;;;;;;;;;;;;4996171;28;20137;-68
2022/09/01 04:45:35;;;;;;;;;;;;;;;;;;4993067;28;19934;-68
2022/09/01 04:48:02;;;;;;;;;;;;;;;;;;4996952;28;19932;-68
2022/09/01 04:50:31;;;;;;;;;;;;;;;;;;5002227;28;20008;-69
2022/09/01 04:52:59;;;;;;;;;;;;;;;;;;4997717;28;19940;-69
2022/09/01 04:55:28;;;;;;;;;;;;;;;;;;4994341;28;19926;-69
2022/09/01 04:57:56;;;;;;;;;;;;;;;;;;4993547;28;19983;-68
2022/09/01 05:00:23;;;;;;;;;;;;;;;;;;5033181;28;19924;-68
2022/09/01 05:02:50;;;;;;;;;;;;;;;;;;5023788;28;19924;-68
2022/09/01 05:05:17;;;;;;;;;;;;;;;;;;5005016;28;20161;-67
2022/09/01 05:07:45;;;;;;;;;;;;;;;;;;5045165;28;19924;-67
2022/09/01 05:10:12;;;;;;;;;;;;;;;;;;5012236;28;19925;-67
2022/09/01 05:12:40;;;;;;;;;;;;;;;;;;5011985;28;20024;-68
2022/09/01 05:15:08;;;;;;;;;;;;;;;;;;5014220;28;19969;-68
2022/09/01 05:17:37;;;;;;;;;;;;;;;;;;5024229;28;20378;-69
2022/09/01 05:20:04;;;;;;;;;;;;;;;;;;5023957;28;19925;-68
2022/09/01 05:22:31;;;;;;;;;;;;;;;;;;5011187;28;20367;-68
2022/09/01 05:25:01;;;;;;;;;;;;;;;;;;4990834;28;20017;-68
2022/09/01 05:27:29;;;;;;;;;;;;;;;;;;5001504;28;19933;-67
2022/09/01 05:29:59;;;;;;;;;;;;;;;;;;5022073;28;20374;-66
2022/09/01 05:32:26;;;;;;;;;;;;;;;;;;5020214;28;20055;-66
2022/09/01 05:34:53;;;;;;;;;;;;;;;;;;5006136;28;20404;-67
2022/09/01 05:37:20;;;;;;;;;;;;;;;;;;5004278;28;20392;-67
2022/09/01 05:39:47;;;;;;;;;;;;;;;;;;5017539;28;19937;-67
2022/09/01 05:42:14;;;;;;;;;;;;;;;;;;5050179;28;19924;-67
2022/09/01 05:44:43;;;;;;;;;;;;;;;;;;5033633;28;20025;-66
2022/09/01 05:47:12;;;;;;;;;;;;;;;;;;5011359;28;19926;-67
2022/09/01 05:49:39;;;;;;;;;;;;;;;;;;5019204;28;19929;-67
2022/09/01 05:52:08;;;;;;;;;;;;;;;;;;5004667;28;19933;-67
2022/09/01 05:54:35;;;;;;;;;;;;;;;;;;5013983;28;20386;-67
2022/09/01 05:57:02;;;;;;;;;;;;;;;;;;4995349;28;20341;-67
2022/09/01 05:59:30;;;;;;;;;;;;;;;;;;4989773;28;19930;-66
2022/09/01 06:01:57;;;;;;;;;;;;;;;;;;4990250;28;19926;-66
2022/09/01 06:04:24;;;;;;;;;;;;;;;;;;4988264;28;19931;-66
2022/09/01 06:06:52;;;;;;;;;;;;;;;;;;4987615;28;20395;-66
2022/09/01 06:09:22;;;;;;;;;;;;;;;;;;4987642;28;19925;-66
2022/09/01 06:11:49;;;;;;;;;;;;;;;;;;4986590;28;19934;-64
2022/09/01 06:14:16;;;;;;;;;;;;;;;;;;4988428;28;19930;-64
2022/09/01 06:16:44;;;;;;;;;;;;;;;;;;4987612;28;20413;-64
2022/09/01 06:19:11;;;;;;;;;;;;;;;;;;4990186;28;20024;-65
2022/09/01 06:21:38;;;;;;;;;;;;;;;;;;4987192;28;19929;-65
2022/09/01 06:24:05;;;;;;;;;;;;;;;;;;4988645;28;20489;-65
2022/09/01 06:26:33;;;;;;;;;;;;;;;;;;4986747;28;20386;-65
2022/09/01 06:29:02;;;;;;;;;;;;;;;;;;4989748;28;20424;-65
2022/09/01 06:31:32;;;;;;;;;;;;;;;;;;4993194;28;20414;-67
2022/09/01 06:33:59;;;;;;;;;;;;;;;;;;5003000;28;19930;-65
2022/09/01 06:36:26;;;;;;;;;;;;;;;;;;5000285;28;20028;-65
2022/09/01 06:38:54;;;;;;;;;;;;;;;;;;5005404;28;20016;-65
2022/09/01 06:41:21;;;;;;;;;;;;;;;;;;5001959;28;19929;-65
2022/09/01 06:43:48;;;;;;;;;;;;;;;;;;4999612;28;20012;-65
2022/09/01 06:46:15;;;;;;;;;;;;;;;;;;5004920;28;19979;-66
2022/09/01 06:48:45;;;;;;;;;;;;;;;;;;5006445;28;20024;-65
2022/09/01 06:51:13;;;;;;;;;;;;;;;;;;5000255;28;19933;-66
2022/09/01 06:53:40;;;;;;;;;;;;;;;;;;4999360;28;19969;-65
2022/09/01 06:56:07;;;;;;;;;;;;;;;;;;4998766;28;19926;-66
2022/09/01 06:58:34;;;;;;;;;;;;;;;;;;4997445;28;19941;-67
2022/09/01 07:01:01;;;;;;;;;;;;;;;;;;5002420;28;19941;-67
2022/09/01 07:03:28;;;;;;;;;;;;;;;;;;5028928;28;19969;-65
2022/09/01 07:05:55;;;;;;;;;;;;;;;;;;5002926;28;20527;-66
2022/09/01 07:08:23;;;;;;;;;;;;;;;;;;5006361;28;19978;-66
2022/09/01 07:10:50;;;;;;;;;;;;;;;;;;5005000;28;20281;-64
2022/09/01 07:13:21;;;;;;;;;;;;;;;;;;5007775;28;20097;-67
2022/09/01 07:15:48;;;;;;;;;;;;;;;;;;5029289;28;20390;-63
2022/09/01 07:18:16;;;;;;;;;;;;;;;;;;5003702;28;19925;-63
2022/09/01 07:20:43;;;;;;;;;;;;;;;;;;5005062;28;19990;-65
2022/09/01 07:23:10;;;;;;;;;;;;;;;;;;5010701;28;19937;-65
2022/09/01 07:25:37;;;;;;;;;;;;;;;;;;5020320;28;19933;-64
2022/09/01 07:28:04;;;;;;;;;;;;;;;;;;4998020;28;20010;-66
2022/09/01 07:30:32;;;;;;;;;;;;;;;;;;4993860;28;19934;-65
2022/09/01 07:32:59;;;;;;;;;;;;;;;;;;5009326;28;20399;-66
2022/09/01 07:35:26;;;;;;;;;;;;;;;;;;5025042;28;19930;-65
2022/09/01 07:37:54;;;;;;;;;;;;;;;;;;5001664;28;20088;-65
2022/09/01 07:40:22;;;;;;;;;;;;;;;;;;5000701;28;19960;-65
2022/09/01 07:42:48;;;;;;;;;;;;;;;;;;4999283;28;19926;-65
2022/09/01 07:45:15;;;;;;;;;;;;;;;;;;5001811;28;19960;-65
2022/09/01 07:47:43;;;;;;;;;;;;;;;;;;5038710;28;19926;-65
2022/09/01 07:50:11;;;;;;;;;;;;;;;;;;5009875;28;20337;-65
2022/09/01 07:52:42;;;;;;;;;;;;;;;;;;5019319;28;19924;-65
2022/09/01 07:55:10;;;;;;;;;;;;;;;;;;5007906;28;20069;-65
2022/09/01 07:57:36;;;;;;;;;;;;;;;;;;5007339;28;20279;-65
2022/09/01 08:00:04;;;;;;;;;;;;;;;;;;5004930;28;19968;-66
2022/09/01 08:02:31;;;;;;;;;;;;;;;;;;4999678;28;20038;-66
2022/09/01 08:04:59;;;;;;;;;;;;;;;;;;4998840;28;20016;-66
2022/09/01 08:07:26;;;;;;;;;;;;;;;;;;5003022;28;19947;-66
2022/09/01 08:09:53;;;;;;;;;;;;;;;;;;5000757;28;19932;-66
2022/09/01 08:12:20;;;;;;;;;;;;;;;;;;5002776;28;19979;-67
2022/09/01 08:14:51;;;;;;;;;;;;;;;;;;4996665;28;19927;-65
2022/09/01 08:17:18;;;;;;;;;;;;;;;;;;5030792;28;19969;-66
2022/09/01 08:19:46;;;;;;;;;;;;;;;;;;4997059;28;19936;-65
2022/09/01 08:22:13;;;;;;;;;;;;;;;;;;5000492;28;19926;-65
2022/09/01 08:24:40;;;;;;;;;;;;;;;;;;4997400;28;19934;-66
2022/09/01 08:27:07;;;;;;;;;;;;;;;;;;4998946;28;20695;-65
2022/09/01 08:29:34;;;;;;;;;;;;;;;;;;4997333;28;20426;-66
2022/09/01 08:32:01;;;;;;;;;;;;;;;;;;5000443;28;20004;-66
2022/09/01 08:34:31;;;;;;;;;;;;;;;;;;4998969;28;20389;-65
2022/09/01 08:36:58;;;;;;;;;;;;;;;;;;5000514;28;19926;-66
2022/09/01 08:39:26;;;;;;;;;;;;;;;;;;4997890;28;19930;-66
2022/09/01 08:41:53;;;;;;;;;;;;;;;;;;5000372;28;19934;-65
2022/09/01 08:44:20;;;;;;;;;;;;;;;;;;4998997;28;20291;-65
2022/09/01 08:46:47;;;;;;;;;;;;;;;;;;4998691;28;19925;-65
2022/09/01 08:49:14;;;;;;;;;;;;;;;;;;5003374;28;20280;-66
2022/09/01 08:51:41;;;;;;;;;;;;;;;;;;4998610;28;19934;-65
2022/09/01 08:54:08;;;;;;;;;;;;;;;;;;5002014;28;19969;-66
2022/09/01 08:56:36;;;;;;;;;;;;;;;;;;5006613;28;19935;-65
2022/09/01 08:59:03;;;;;;;;;;;;;;;;;;5007937;28;19931;-66
2022/09/01 09:01:30;;;;;;;;;;;;;;;;;;4999811;28;20026;-66
2022/09/01 09:03:57;;;;;;;;;;;;;;;;;;5001359;28;20021;-66
2022/09/01 09:06:24;;;;;;;;;;;;;;;;;;5006403;28;20016;-65
2022/09/01 09:08:51;;;;;;;;;;;;;;;;;;4998797;28;19936;-65
2022/09/01 09:11:19;;;;;;;;;;;;;;;;;;4996136;28;20393;-66
2022/09/01 09:13:46;;;;;;;;;;;;;;;;;;4994083;28;19925;-65
2022/09/01 09:16:13;;;;;;;;;;;;;;;;;;5009790;28;20009;-65
2022/09/01 09:18:40;;;;;;;;;;;;;;;;;;5003781;28;22084;-66
2022/09/01 09:21:07;;;;;;;;;;;;;;;;;;4999742;28;19925;-66
2022/09/01 09:23:34;;;;;;;;;;;;;;;;;;5002934;28;20527;-66
2022/09/01 09:26:00;;;;;;;;;;;;;;;;;;5021587;28;19934;-65
2022/09/01 09:28:27;;;;;;;;;;;;;;;;;;5002708;28;20656;-65
2022/09/01 09:30:54;;;;;;;;;;;;;;;;;;5009903;28;20016;-65
2022/09/01 09:33:22;;;;;;;;;;;;;;;;;;4996969;28;19932;-65
2022/09/01 09:35:49;;;;;;;;;;;;;;;;;;5005887;28;20014;-65
2022/09/01 09:38:19;;;;;;;;;;;;;;;;;;4994291;28;20012;-65
2022/09/01 09:40:47;;;;;;;;;;;;;;;;;;4992894;28;20024;-65
2022/09/01 09:43:14;;;;;;;;;;;;;;;;;;5002849;28;19969;-65
2022/09/01 09:45:42;;;;;;;;;;;;;;;;;;4995745;28;19937;-64
2022/09/01 09:48:09;;;;;;;;;;;;;;;;;;4994280;28;19930;-65
2022/09/01 09:50:37;;;;;;;;;;;;;;;;;;4997798;28;19940;-65
2022/09/01 09:53:04;;;;;;;;;;;;;;;;;;5003850;28;20376;-65
2022/09/01 09:55:31;;;;;;;;;;;;;;;;;;5002444;28;19926;-65
2022/09/01 09:57:58;;;;;;;;;;;;;;;;;;5002419;28;20021;-65
2022/09/01 10:00:25;;;;;;;;;;;;;;;;;;5005677;28;20399;-65
2022/09/01 10:02:52;;;;;;;;;;;;;;;;;;4997972;28;20409;-65
2022/09/01 10:05:19;;;;;;;;;;;;;;;;;;5000770;28;19961;-65
2022/09/01 10:07:46;;;;;;;;;;;;;;;;;;4997756;28;20010;-65
2022/09/01 10:10:13;;;;;;;;;;;;;;;;;;4999243;28;20021;-64
2022/09/01 10:12:40;;;;;;;;;;;;;;;;;;5004092;28;20392;-65
2022/09/01 10:15:07;;;;;;;;;;;;;;;;;;4998836;28;19933;-65
2022/09/01 10:17:34;;;;;;;;;;;;;;;;;;4998593;28;20012;-64
2022/09/01 10:20:05;;;;;;;;;;;;;;;;;;4997527;28;20319;-65
2022/09/01 10:22:32;;;;;;;;;;;;;;;;;;5000059;28;19941;-65
2022/09/01 10:25:02;;;;;;;;;;;;;;;;;;4997216;28;20197;-65
2022/09/01 10:27:28;;;;;;;;;;;;;;;;;;5001480;28;19925;-65
2022/09/01 10:29:55;;;;;;;;;;;;;;;;;;5001924;28;20358;-66
2022/09/01 10:32:22;;;;;;;;;;;;;;;;;;5007106;28;20315;-67
2022/09/01 10:34:49;;;;;;;;;;;;;;;;;;5006446;28;20388;-67
2022/09/01 10:37:16;;;;;;;;;;;;;;;;;;4994667;28;20380;-67
2022/09/01 10:39:43;;;;;;;;;;;;;;;;;;5005621;28;20355;-67
2022/09/01 10:42:10;;;;;;;;;;;;;;;;;;4996781;28;20008;-65
2022/09/01 10:44:39;;;;;;;;;;;;;;;;;;5005253;28;20315;-66
2022/09/01 10:47:06;;;;;;;;;;;;;;;;;;5007017;28;19926;-67
2022/09/01 10:49:33;;;;;;;;;;;;;;;;;;4995161;28;19929;-68
2022/09/01 10:52:00;;;;;;;;;;;;;;;;;;5004904;28;19939;-67
2022/09/01 10:54:27;;;;;;;;;;;;;;;;;;4995496;28;19923;-67
2022/09/01 10:56:55;;;;;;;;;;;;;;;;;;5002963;28;19960;-66
2022/09/01 10:59:22;;;;;;;;;;;;;;;;;;5002210;28;19926;-67
2022/09/01 11:01:49;;;;;;;;;;;;;;;;;;5003745;28;20004;-67
2022/09/01 11:04:16;;;;;;;;;;;;;;;;;;5003913;28;20019;-67
2022/09/01 11:06:43;;;;;;;;;;;;;;;;;;5002637;28;19930;-66
2022/09/01 11:09:10;;;;;;;;;;;;;;;;;;5001683;28;19925;-67
2022/09/01 11:11:37;;;;;;;;;;;;;;;;;;4998153;28;19926;-67
2022/09/01 11:14:10;;;;;;;;;;;;;;;;;;5008679;28;20376;-65
2022/09/01 11:16:37;;;;;;;;;;;;;;;;;;4998698;28;19932;-67
2022/09/01 11:19:05;;;;;;;;;;;;;;;;;;5000588;28;20004;-66
2022/09/01 11:21:32;;;;;;;;;;;;;;;;;;5012764;28;20423;-66
2022/09/01 11:24:00;;;;;;;;;;;;;;;;;;5002338;28;20016;-66
2022/09/01 11:26:27;;;;;;;;;;;;;;;;;;5025276;28;19936;-66
2022/09/01 11:28:53;;;;;;;;;;;;;;;;;;5011237;28;19932;-65
2022/09/01 11:31:20;;;;;;;;;;;;;;;;;;5002118;28;19925;-66
2022/09/01 11:33:47;;;;;;;;;;;;;;;;;;5003021;28;20012;-66
2022/09/01 11:36:15;;;;;;;;;;;;;;;;;;5008725;28;19972;-64
2022/09/01 11:38:42;;;;;;;;;;;;;;;;;;5005359;28;20593;-66
2022/09/01 11:41:09;;;;;;;;;;;;;;;;;;5016916;28;20041;-65
2022/09/01 11:43:36;;;;;;;;;;;;;;;;;;5004868;28;19974;-66
2022/09/01 11:46:03;;;;;;;;;;;;;;;;;;4997974;28;20435;-65
2022/09/01 11:48:30;;;;;;;;;;;;;;;;;;4996237;28;19972;-65
2022/09/01 11:50:57;;;;;;;;;;;;;;;;;;4996895;28;20024;-65
2022/09/01 11:53:24;;;;;;;;;;;;;;;;;;5006850;28;19956;-65
2022/09/01 11:55:51;;;;;;;;;;;;;;;;;;5034800;28;20059;-66
2022/09/01 11:58:18;;;;;;;;;;;;;;;;;;5001680;28;19933;-65
2022/09/01 12:00:46;;;;;;;;;;;;;;;;;;5000125;28;20559;-65
2022/09/01 12:03:13;;;;;;;;;;;;;;;;;;4997060;28;20005;-66
2022/09/01 12:05:40;;;;;;;;;;;;;;;;;;5005075;28;20016;-66
2022/09/01 12:08:07;;;;;;;;;;;;;;;;;;4995874;28;20384;-65
2022/09/01 12:10:34;;;;;;;;;;;;;;;;;;5000716;28;20006;-66
2022/09/01 12:13:01;;;;;;;;;;;;;;;;;;5001895;28;19976;-65
2022/09/01 12:15:29;;;;;;;;;;;;;;;;;;4997816;28;20278;-66
2022/09/01 12:17:56;;;;;;;;;;;;;;;;;;4996673;28;20010;-66
2022/09/01 12:20:23;;;;;;;;;;;;;;;;;;4995441;28;19929;-70
2022/09/01 12:22:50;;;;;;;;;;;;;;;;;;5002251;28;19925;-65
2022/09/01 12:25:17;;;;;;;;;;;;;;;;;;5006559;28;19933;-66
2022/09/01 12:27:44;;;;;;;;;;;;;;;;;;5004607;28;19940;-66
2022/09/01 12:30:11;;;;;;;;;;;;;;;;;;5009050;28;19932;-66
2022/09/01 12:32:38;;;;;;;;;;;;;;;;;;4997257;28;20013;-66
2022/09/01 12:35:05;;;;;;;;;;;;;;;;;;4995567;28;19945;-66
2022/09/01 12:37:32;;;;;;;;;;;;;;;;;;4995365;28;20119;-68
2022/09/01 12:39:59;;;;;;;;;;;;;;;;;;4994184;28;20008;-66
2022/09/01 12:42:27;;;;;;;;;;;;;;;;;;4995036;28;19929;-66
2022/09/01 12:44:54;;;;;;;;;;;;;;;;;;4996853;28;20402;-65
2022/09/01 12:47:23;;;;;;;;;;;;;;;;;;4995989;28;19980;-66
2022/09/01 12:49:50;;;;;;;;;;;;;;;;;;4993525;28;21988;-65
2022/09/01 12:52:17;;;;;;;;;;;;;;;;;;4994534;28;19925;-66
2022/09/01 12:54:44;;;;;;;;;;;;;;;;;;4996790;28;20264;-66
2022/09/01 12:57:11;;;;;;;;;;;;;;;;;;4993711;28;20030;-66
2022/09/01 12:59:38;;;;;;;;;;;;;;;;;;4996105;28;20022;-66
2022/09/01 13:02:05;;;;;;;;;;;;;;;;;;4994319;28;19936;-66
2022/09/01 13:04:33;;;;;;;;;;;;;;;;;;4999863;28;19930;-65
2022/09/01 13:07:00;;;;;;;;;;;;;;;;;;4996902;28;20380;-65
2022/09/01 13:09:27;;;;;;;;;;;;;;;;;;5002796;28;20395;-65
2022/09/01 13:11:54;;;;;;;;;;;;;;;;;;5005704;28;19944;-64
2022/09/01 13:14:21;;;;;;;;;;;;;;;;;;5006388;28;20312;-64
2022/09/01 13:16:48;;;;;;;;;;;;;;;;;;5009721;28;19926;-65
2022/09/01 13:19:15;;;;;;;;;;;;;;;;;;5029608;28;20384;-65
2022/09/01 13:21:42;;;;;;;;;;;;;;;;;;4999550;28;20409;-64
2022/09/01 13:24:09;;;;;;;;;;;;;;;;;;5003089;28;19976;-65
2022/09/01 13:26:36;;;;;;;;;;;;;;;;;;5001519;28;19964;-66
2022/09/01 13:29:03;;;;;;;;;;;;;;;;;;5000813;28;20025;-65
2022/09/01 13:31:30;;;;;;;;;;;;;;;;;;5002598;28;20008;-66
2022/09/01 13:33:57;;;;;;;;;;;;;;;;;;4997668;28;19925;-67
2022/09/01 13:36:24;;;;;;;;;;;;;;;;;;4996393;28;19979;-67
2022/09/01 13:38:51;;;;;;;;;;;;;;;;;;4993051;28;19933;-67
2022/09/01 13:41:18;;;;;;;;;;;;;;;;;;4991975;28;20024;-67
2022/09/01 13:43:46;;;;;;;;;;;;;;;;;;4992490;28;20373;-67
2022/09/01 13:46:13;;;;;;;;;;;;;;;;;;4999216;28;20360;-67
2022/09/01 13:48:39;;;;;;;;;;;;;;;;;;4995237;28;20330;-68
2022/09/01 13:51:07;;;;;;;;;;;;;;;;;;5005782;28;20395;-67
2022/09/01 13:53:34;;;;;;;;;;;;;;;;;;5002841;28;19987;-68
2022/09/01 13:56:02;;;;;;;;;;;;;;;;;;5000344;28;19960;-67
2022/09/01 13:58:31;;;;;;;;;;;;;;;;;;4998335;28;20268;-67
2022/09/01 14:00:58;;;;;;;;;;;;;;;;;;5002227;28;19934;-67
2022/09/01 14:03:25;;;;;;;;;;;;;;;;;;4997515;28;20312;-66
2022/09/01 14:05:52;;;;;;;;;;;;;;;;;;5005546;28;19926;-67
2022/09/01 14:08:20;;;;;;;;;;;;;;;;;;4997666;28;20072;-67
2022/09/01 14:10:47;;;;;;;;;;;;;;;;;;4994469;28;20012;-67
2022/09/01 14:13:14;;;;;;;;;;;;;;;;;;4992642;28;19967;-67
2022/09/01 14:15:41;;;;;;;;;;;;;;;;;;4991264;28;19925;-67
2022/09/01 14:18:08;;;;;;;;;;;;;;;;;;4998016;28;20024;-66
2022/09/01 14:20:38;;;;;;;;;;;;;;;;;;4995975;28;20402;-66
2022/09/01 14:23:05;;;;;;;;;;;;;;;;;;5001815;28;20295;-66
2022/09/01 14:25:32;;;;;;;;;;;;;;;;;;4997735;28;20644;-67
2022/09/01 14:28:00;;;;;;;;;;;;;;;;;;4996931;28;19925;-67
2022/09/01 14:30:27;;;;;;;;;;;;;;;;;;5005389;28;20305;-66
2022/09/01 14:32:54;;;;;;;;;;;;;;;;;;4992520;28;19971;-66
2022/09/01 14:35:23;;;;;;;;;;;;;;;;;;5006282;28;19940;-66
2022/09/01 14:37:50;;;;;;;;;;;;;;;;;;5003246;28;19936;-66
2022/09/01 14:40:18;;;;;;;;;;;;;;;;;;5002600;28;20024;-67
2022/09/01 14:42:46;;;;;;;;;;;;;;;;;;5009080;28;19926;-66
2022/09/01 14:45:15;;;;;;;;;;;;;;;;;;5012751;28;20284;-66
2022/09/01 14:47:43;;;;;;;;;;;;;;;;;;5008854;28;19930;-65
2022/09/01 14:50:09;;;;;;;;;;;;;;;;;;5000925;28;20292;-66
2022/09/01 14:52:37;;;;;;;;;;;;;;;;;;5006318;28;20008;-66
2022/09/01 14:55:03;;;;;;;;;;;;;;;;;;5006065;28;19925;-65
2022/09/01 14:57:30;;;;;;;;;;;;;;;;;;5004552;28;19925;-65
2022/09/01 14:59:57;;;;;;;;;;;;;;;;;;5031064;28;19933;-65
2022/09/01 15:02:27;;;;;;;;;;;;;;;;;;5004763;28;19939;-66
2022/09/01 15:04:54;;;;;;;;;;;;;;;;;;5001596;28;20024;-65
2022/09/01 15:07:21;;;;;;;;;;;;;;;;;;5026030;28;19937;-66
2022/09/01 15:09:48;;;;;;;;;;;;;;;;;;5021953;28;19960;-66
2022/09/01 15:12:15;;;;;;;;;;;;;;;;;;5023366;28;19931;-67
2022/09/01 15:14:42;;;;;;;;;;;;;;;;;;5009903;28;19934;-67
2022/09/01 15:17:09;;;;;;;;;;;;;;;;;;4993301;28;19987;-67
2022/09/01 15:19:36;;;;;;;;;;;;;;;;;;4999447;28;20391;-67
2022/09/01 15:22:03;;;;;;;;;;;;;;;;;;4998499;28;19929;-67
2022/09/01 15:24:30;;;;;;;;;;;;;;;;;;5000548;28;19932;-67
2022/09/01 15:26:57;;;;;;;;;;;;;;;;;;4999492;28;19930;-66
2022/09/01 15:29:24;;;;;;;;;;;;;;;;;;5001157;28;19949;-66
2022/09/01 15:31:51;;;;;;;;;;;;;;;;;;4998024;28;19925;-67
2022/09/01 15:34:18;;;;;;;;;;;;;;;;;;5003342;28;19925;-66
2022/09/01 15:36:45;;;;;;;;;;;;;;;;;;5010278;28;19944;-67
2022/09/01 15:39:12;;;;;;;;;;;;;;;;;;5004134;28;20959;-67
2022/09/01 15:41:39;;;;;;;;;;;;;;;;;;4993704;28;20311;-69
2022/09/01 15:44:06;;;;;;;;;;;;;;;;;;4999822;28;19972;-68
2022/09/01 15:46:33;;;;;;;;;;;;;;;;;;5001257;28;19925;-67
2022/09/01 15:49:00;;;;;;;;;;;;;;;;;;4995001;28;19932;-67
2022/09/01 15:51:28;;;;;;;;;;;;;;;;;;5006455;28;20070;-66
2022/09/01 15:53:55;;;;;;;;;;;;;;;;;;5005575;28;20342;-67
2022/09/01 15:56:22;;;;;;;;;;;;;;;;;;5001991;28;20011;-67
2022/09/01 15:58:49;;;;;;;;;;;;;;;;;;4997781;28;20003;-67
2022/09/01 16:01:16;;;;;;;;;;;;;;;;;;4992231;28;20025;-66
2022/09/01 16:03:45;;;;;;;;;;;;;;;;;;4992432;28;20029;-67
2022/09/01 16:06:13;;;;;;;;;;;;;;;;;;4998437;28;19981;-67
2022/09/01 16:08:40;;;;;;;;;;;;;;;;;;4991883;28;21292;-67
2022/09/01 16:11:08;;;;;;;;;;;;;;;;;;4994881;28;19933;-67
2022/09/01 16:13:35;;;;;;;;;;;;;;;;;;5000024;28;20401;-66
2022/09/01 16:16:02;;;;;;;;;;;;;;;;;;5004388;28;19926;-67
2022/09/01 16:18:29;;;;;;;;;;;;;;;;;;5003179;28;19957;-67
2022/09/01 16:20:56;;;;;;;;;;;;;;;;;;4996330;28;19973;-65
2022/09/01 16:23:23;;;;;;;;;;;;;;;;;;5005667;28;20016;-66
2022/09/01 16:25:52;;;;;;;;;;;;;;;;;;5000400;28;19932;-66
2022/09/01 16:28:19;;;;;;;;;;;;;;;;;;5006846;28;19971;-66
2022/09/01 16:30:46;;;;;;;;;;;;;;;;;;5003262;28;19974;-66
2022/09/01 16:33:18;;;;;;;;;;;;;;;;;;5000031;28;20024;-65
2022/09/01 16:35:46;;;;;;;;;;;;;;;;;;5004665;28;19926;-65
2022/09/01 16:38:13;;;;;;;;;;;;;;;;;;4998215;28;19926;-66
2022/09/01 16:40:40;;;;;;;;;;;;;;;;;;5000389;28;19970;-66
2022/09/01 16:43:07;;;;;;;;;;;;;;;;;;4999904;28;19999;-65
2022/09/01 16:45:34;;;;;;;;;;;;;;;;;;4991181;28;19973;-65
2022/09/01 16:48:01;;;;;;;;;;;;;;;;;;5003668;28;20332;-65
2022/09/01 16:50:28;;;;;;;;;;;;;;;;;;5002779;28;20020;-65